createdAt,value
2022-11-07T00:00:15.971Z,100423.03
2022-11-07T00:04:17.485Z,100427.53
2022-11-07T00:08:18.974Z,100431.50
2022-11-07T00:12:20.626Z,100431.03
2022-11-07T00:16:22.617Z,100419.88
2022-11-07T00:20:24.561Z,100418.88
2022-11-07T00:24:26.362Z,100425.41
2022-11-07T00:28:27.933Z,100423.81
2022-11-07T00:32:29.415Z,100423.25
2022-11-07T00:36:30.991Z,100432.00
2022-11-07T00:40:32.650Z,100423.88
2022-11-07T00:44:34.265Z,100435.09
2022-11-07T00:48:36.780Z,100440.38
2022-11-07T00:52:38.305Z,100437.28
2022-11-07T00:56:39.851Z,100439.31
2022-11-07T01:00:42.375Z,100453.25
2022-11-07T01:05:02.587Z,100456.94
2022-11-07T01:09:06.200Z,100459.50
2022-11-07T01:13:07.728Z,100448.56
2022-11-07T01:17:09.284Z,100441.19
2022-11-07T01:21:15.259Z,100456.03
2022-11-07T01:25:18.061Z,100452.22
2022-11-07T01:29:20.192Z,100447.59
2022-11-07T01:33:21.726Z,100459.28
2022-11-07T01:37:23.240Z,100461.72
2022-11-07T01:41:27.972Z,100455.69
2022-11-07T01:45:33.909Z,100462.06
2022-11-07T01:49:39.616Z,100468.47
2022-11-07T01:53:41.896Z,100463.81
2022-11-07T01:57:57.519Z,100456.53
2022-11-07T02:01:59.321Z,100460.28
2022-11-07T02:06:09.137Z,100457.19
2022-11-07T02:10:11.307Z,100457.31
2022-11-07T02:14:17.209Z,100459.13
2022-11-07T02:18:18.799Z,100457.59
2022-11-07T02:22:37.919Z,100456.84
2022-11-07T02:26:40.779Z,100438.81
2022-11-07T02:30:42.303Z,100440.81
2022-11-07T02:34:43.776Z,100444.59
2022-11-07T02:38:48.883Z,100435.00
2022-11-07T02:42:50.501Z,100448.97
2022-11-07T02:46:52.185Z,100449.25
2022-11-07T02:50:53.672Z,100446.50
2022-11-07T02:54:55.530Z,100439.09
2022-11-07T02:58:57.011Z,100436.13
2022-11-07T03:02:58.669Z,100436.59
2022-11-07T03:07:00.168Z,100450.78
2022-11-07T03:11:02.428Z,100450.94
2022-11-07T03:15:05.948Z,100456.84
2022-11-07T03:19:07.474Z,100455.00
2022-11-07T03:23:08.954Z,100469.19
2022-11-07T03:27:10.444Z,100468.00
2022-11-07T03:31:11.945Z,100466.88
2022-11-07T03:35:13.878Z,100464.75
2022-11-07T03:39:15.360Z,100467.53
2022-11-07T03:43:17.191Z,100459.00
2022-11-07T03:47:19.105Z,100464.75
2022-11-07T03:51:20.787Z,100471.88
2022-11-07T03:55:22.325Z,100478.91
2022-11-07T03:59:23.957Z,100489.38
2022-11-07T04:03:25.461Z,100488.72
2022-11-07T04:07:27.099Z,100493.19
2022-11-07T04:11:47.299Z,100495.09
2022-11-07T04:16:12.368Z,100499.38
2022-11-07T04:20:16.463Z,100508.00
2022-11-07T04:24:17.945Z,100509.81
2022-11-07T04:28:19.433Z,100511.53
2022-11-07T04:32:21.889Z,100511.69
2022-11-07T04:36:23.392Z,100512.44
2022-11-07T04:40:25.385Z,100514.63
2022-11-07T04:44:26.857Z,100513.69
2022-11-07T04:48:28.385Z,100519.78
2022-11-07T04:52:29.874Z,100520.03
2022-11-07T04:56:34.477Z,100517.50
2022-11-07T05:00:36.743Z,100513.13
2022-11-07T05:04:39.345Z,100506.41
2022-11-07T05:08:40.844Z,100507.53
2022-11-07T05:12:42.352Z,100504.88
2022-11-07T05:16:44.103Z,100504.78
2022-11-07T05:20:45.606Z,100497.94
2022-11-07T05:24:47.276Z,100503.06
2022-11-07T05:28:48.839Z,100506.41
2022-11-07T05:32:50.322Z,100504.09
2022-11-07T05:36:51.905Z,100504.28
2022-11-07T05:40:53.469Z,100500.09
2022-11-07T05:44:54.994Z,100507.91
2022-11-07T05:49:00.666Z,100509.72
2022-11-07T05:53:03.946Z,100514.91
2022-11-07T05:57:05.563Z,100514.16
2022-11-07T06:01:07.181Z,100515.13
2022-11-07T06:05:09.472Z,100524.53
2022-11-07T06:09:11.590Z,100527.19
2022-11-07T06:13:15.680Z,100534.13
2022-11-07T06:17:17.420Z,100529.94
2022-11-07T06:21:18.963Z,100533.44
2022-11-07T06:25:20.522Z,100533.53
2022-11-07T06:29:22.023Z,100530.88
2022-11-07T06:33:23.517Z,100539.41
2022-11-07T06:37:28.709Z,100537.53
2022-11-07T06:41:30.227Z,100534.88
2022-11-07T06:45:31.726Z,100541.72
2022-11-07T06:49:33.301Z,100540.81
2022-11-07T06:53:34.873Z,100543.53
2022-11-07T06:57:36.466Z,100559.25
2022-11-07T07:01:38.197Z,100557.69
2022-11-07T07:05:39.915Z,100553.63
2022-11-07T07:09:41.380Z,100547.81
2022-11-07T07:13:42.930Z,100544.47
2022-11-07T07:17:44.445Z,100546.00
2022-11-07T07:21:45.963Z,100555.28
2022-11-07T07:25:47.970Z,100559.50
2022-11-07T07:29:50.496Z,100561.28
2022-11-07T07:33:52.112Z,100569.88
2022-11-07T07:37:53.618Z,100574.25
2022-11-07T07:41:55.278Z,100583.69
2022-11-07T07:46:02.867Z,100578.56
2022-11-07T07:50:06.108Z,100573.53
2022-11-07T07:54:07.687Z,100577.22
2022-11-07T07:58:09.963Z,100566.56
2022-11-07T08:02:11.972Z,100579.84
2022-11-07T08:06:13.555Z,100576.72
2022-11-07T08:10:40.231Z,100588.00
2022-11-07T08:14:37.366Z,100574.41
2022-11-07T08:18:40.815Z,100571.00
2022-11-07T08:22:42.359Z,100576.03
2022-11-07T08:26:44.188Z,100563.91
2022-11-07T08:30:45.762Z,100566.44
2022-11-07T08:34:47.341Z,100572.59
2022-11-07T08:38:48.916Z,100582.28
2022-11-07T08:42:50.464Z,100579.91
2022-11-07T08:46:52.083Z,100585.31
2022-11-07T08:50:54.905Z,100576.16
2022-11-07T08:54:56.571Z,100584.97
2022-11-07T08:58:58.070Z,100574.00
2022-11-07T09:07:28.551Z,100580.94
2022-11-07T09:11:30.045Z,100588.91
2022-11-07T09:15:31.858Z,100584.97
2022-11-07T09:19:33.340Z,100588.75
2022-11-07T09:23:34.923Z,100600.94
2022-11-07T09:27:36.487Z,100599.16
2022-11-07T09:31:37.997Z,100601.78
2022-11-07T09:35:39.509Z,100603.44
2022-11-07T09:39:41.495Z,100595.16
2022-11-07T09:43:58.259Z,100602.56
2022-11-07T09:48:05.422Z,100592.63
2022-11-07T09:52:42.667Z,100608.31
2022-11-07T09:56:44.767Z,100591.44
2022-11-07T10:00:46.731Z,100596.00
2022-11-07T10:04:55.995Z,100589.59
2022-11-07T10:09:20.894Z,100594.94
2022-11-07T10:13:28.290Z,100590.84
2022-11-07T10:17:57.963Z,100598.00
2022-11-07T10:22:11.532Z,100600.03
2022-11-07T10:26:17.221Z,100602.91
2022-11-07T10:30:20.822Z,100602.28
2022-11-07T10:34:36.030Z,100599.69
2022-11-07T10:38:41.433Z,100599.69
2022-11-07T10:42:43.761Z,100599.63
2022-11-07T10:46:50.061Z,100590.91
2022-11-07T10:50:54.359Z,100591.94
2022-11-07T10:55:14.103Z,100603.31
2022-11-07T10:59:24.588Z,100609.56
2022-11-07T11:03:47.260Z,100614.75
2022-11-07T11:07:48.905Z,100601.84
2022-11-07T11:11:51.997Z,100607.00
2022-11-07T11:15:55.851Z,100599.16
2022-11-07T11:19:57.372Z,100594.13
2022-11-07T11:23:58.901Z,100584.13
2022-11-07T11:28:13.420Z,100583.31
2022-11-07T11:32:30.401Z,100578.88
2022-11-07T11:36:38.233Z,100576.31
2022-11-07T11:40:44.039Z,100568.78
2022-11-07T11:44:46.548Z,100554.53
2022-11-07T11:48:51.953Z,100549.88
2022-11-07T11:52:53.542Z,100544.38
2022-11-07T11:57:00.977Z,100535.94
2022-11-07T12:01:20.888Z,100541.19
2022-11-07T12:05:34.210Z,100536.69
2022-11-07T12:09:56.507Z,100535.78
2022-11-07T12:14:00.881Z,100546.09
2022-11-07T12:18:16.359Z,100544.59
2022-11-07T12:22:20.967Z,100546.50
2022-11-07T12:26:29.935Z,100547.41
2022-11-07T12:30:51.631Z,100548.78
2022-11-07T12:35:25.748Z,100534.00
2022-11-07T12:39:46.605Z,100537.59
2022-11-07T12:44:04.787Z,100527.28
2022-11-07T12:48:37.494Z,100519.50
2022-11-07T12:52:57.329Z,100522.94
2022-11-07T12:57:02.669Z,100518.59
2022-11-07T13:01:06.038Z,100497.19
2022-11-07T13:05:29.438Z,100504.88
2022-11-07T13:09:39.380Z,100505.56
2022-11-07T13:13:48.764Z,100507.44
2022-11-07T13:17:50.352Z,100503.25
2022-11-07T13:22:05.497Z,100505.91
2022-11-07T13:26:26.239Z,100511.06
2022-11-07T13:30:37.967Z,100512.72
2022-11-07T13:34:45.958Z,100517.63
2022-11-07T13:38:52.677Z,100516.50
2022-11-07T13:42:59.058Z,100513.75
2022-11-07T13:47:05.156Z,100523.06
2022-11-07T13:51:16.002Z,100526.34
2022-11-07T13:55:22.155Z,100530.59
2022-11-07T13:59:50.318Z,100522.91
2022-11-07T14:03:51.913Z,100528.06
2022-11-07T14:08:02.817Z,100522.97
2022-11-07T14:12:04.594Z,100519.53
2022-11-07T14:16:17.895Z,100529.84
2022-11-07T14:20:20.431Z,100528.88
2022-11-07T14:24:31.298Z,100534.03
2022-11-07T14:28:37.720Z,100533.91
2022-11-07T14:32:47.192Z,100543.25
2022-11-07T14:36:54.132Z,100532.84
2022-11-07T14:40:59.857Z,100525.91
2022-11-07T14:45:02.006Z,100525.91
2022-11-07T14:49:03.688Z,100524.16
2022-11-07T14:53:10.472Z,100523.28
2022-11-07T14:57:13.445Z,100518.06
2022-11-07T15:01:25.709Z,100520.53
2022-11-07T15:05:43.831Z,100528.28
2022-11-07T15:09:45.541Z,100523.91
2022-11-07T15:13:48.228Z,100524.78
2022-11-07T15:17:52.812Z,100522.19
2022-11-07T15:22:00.798Z,100521.28
2022-11-07T15:26:12.252Z,100520.34
2022-11-07T15:30:28.453Z,100517.72
2022-11-07T15:34:57.020Z,100520.25
2022-11-07T15:38:52.374Z,100521.09
2022-11-07T15:42:53.941Z,100533.88
2022-11-07T15:46:55.559Z,100526.97
2022-11-07T15:50:57.419Z,100539.75
2022-11-07T15:54:58.948Z,100531.13
2022-11-07T15:59:00.491Z,100536.25
2022-11-07T16:03:02.051Z,100533.63
2022-11-07T16:07:03.912Z,100538.66
2022-11-07T16:11:11.387Z,100532.63
2022-11-07T16:15:14.477Z,100542.03
2022-11-07T16:19:30.097Z,100553.19
2022-11-07T16:23:31.661Z,100550.56
2022-11-07T16:27:33.177Z,100550.47
2022-11-07T16:31:34.753Z,100546.13
2022-11-07T16:35:36.295Z,100553.00
2022-11-07T16:39:37.852Z,100549.50
2022-11-07T16:43:40.049Z,100546.84
2022-11-07T16:47:43.975Z,100555.25
2022-11-07T16:51:45.565Z,100565.31
2022-11-07T16:55:53.522Z,100560.22
2022-11-07T16:59:55.608Z,100561.94
2022-11-07T17:03:57.322Z,100555.88
2022-11-07T17:08:01.422Z,100551.50
2022-11-07T17:12:03.070Z,100549.81
2022-11-07T17:16:12.063Z,100561.00
2022-11-07T17:20:50.040Z,100562.69
2022-11-07T17:24:45.026Z,100555.88
2022-11-07T17:28:47.409Z,100545.63
2022-11-07T17:32:49.022Z,100555.09
2022-11-07T17:36:51.270Z,100561.19
2022-11-07T17:40:52.784Z,100565.47
2022-11-07T17:44:54.455Z,100555.94
2022-11-07T17:48:57.820Z,100571.50
2022-11-07T17:52:59.304Z,100563.84
2022-11-07T17:57:00.894Z,100554.44
2022-11-07T18:01:02.421Z,100557.03
2022-11-07T18:05:04.358Z,100565.56
2022-11-07T18:09:07.850Z,100555.25
2022-11-07T18:13:09.477Z,100556.94
2022-11-07T18:17:11.057Z,100548.41
2022-11-07T18:21:12.983Z,100557.94
2022-11-07T18:25:14.574Z,100552.72
2022-11-07T18:29:16.272Z,100547.59
2022-11-07T18:33:17.874Z,100551.09
2022-11-07T18:37:19.524Z,100546.78
2022-11-07T18:41:23.586Z,100550.09
2022-11-07T18:45:25.150Z,100548.38
2022-11-07T18:49:26.813Z,100545.75
2022-11-07T18:53:29.404Z,100550.59
2022-11-07T18:57:31.069Z,100549.34
2022-11-07T19:01:33.900Z,100541.28
2022-11-07T19:05:41.006Z,100537.53
2022-11-07T19:09:42.937Z,100539.84
2022-11-07T19:13:48.118Z,100543.06
2022-11-07T19:17:49.652Z,100537.72
2022-11-07T19:21:51.277Z,100537.50
2022-11-07T19:25:53.313Z,100539.09
2022-11-07T19:29:54.918Z,100533.78
2022-11-07T19:33:56.514Z,100535.41
2022-11-07T19:37:58.735Z,100529.19
2022-11-07T19:42:00.784Z,100525.69
2022-11-07T19:46:08.215Z,100536.75
2022-11-07T19:50:09.956Z,100531.53
2022-11-07T19:54:11.704Z,100536.59
2022-11-07T19:58:13.254Z,100537.34
2022-11-07T20:06:38.431Z,100536.28
2022-11-07T20:10:45.878Z,100537.91
2022-11-07T20:14:47.471Z,100546.25
2022-11-07T20:18:49.042Z,100554.66
2022-11-07T20:22:50.603Z,100551.22
2022-11-07T20:26:52.322Z,100554.63
2022-11-07T20:30:55.836Z,100554.53
2022-11-07T20:34:57.918Z,100558.75
2022-11-07T20:39:00.639Z,100559.56
2022-11-07T20:43:02.792Z,100564.69
2022-11-07T20:47:05.179Z,100558.69
2022-11-07T20:51:27.430Z,100554.34
2022-11-07T20:55:29.021Z,100563.72
2022-11-07T20:59:33.955Z,100558.59
2022-11-07T21:03:35.570Z,100571.13
2022-11-07T21:07:37.114Z,100569.19
2022-11-07T21:11:38.959Z,100580.03
2022-11-07T21:15:40.688Z,100574.69
2022-11-07T21:19:42.255Z,100571.84
2022-11-07T21:23:44.183Z,100559.78
2022-11-07T21:27:45.752Z,100561.41
2022-11-07T21:31:47.294Z,100557.78
2022-11-07T21:35:49.153Z,100553.34
2022-11-07T21:39:50.691Z,100552.31
2022-11-07T21:43:52.482Z,100549.59
2022-11-07T21:47:54.202Z,100549.47
2022-11-07T21:51:56.929Z,100547.78
2022-11-07T21:56:00.192Z,100540.75
2022-11-07T22:00:02.148Z,100525.09
2022-11-07T22:04:10.336Z,100532.63
2022-11-07T22:08:12.915Z,100524.63
2022-11-07T22:12:14.405Z,100518.34
2022-11-07T22:16:21.564Z,100516.41
2022-11-07T22:20:23.355Z,100524.91
2022-11-07T22:24:27.137Z,100526.56
2022-11-07T22:28:28.681Z,100523.94
2022-11-07T22:32:30.253Z,100514.56
2022-11-07T22:36:31.961Z,100530.88
2022-11-07T22:40:33.643Z,100512.94
2022-11-07T22:44:35.198Z,100513.63
2022-11-07T22:48:36.907Z,100509.41
2022-11-07T22:52:38.422Z,100500.81
2022-11-07T22:56:40.454Z,100504.97
2022-11-07T23:00:42.893Z,100497.19
2022-11-07T23:04:44.473Z,100502.13
2022-11-07T23:08:47.023Z,100498.69
2022-11-07T23:12:48.579Z,100490.75
2022-11-07T23:16:52.448Z,100493.06
2022-11-07T23:21:11.036Z,100492.06
2022-11-07T23:25:12.573Z,100494.44
2022-11-07T23:29:20.923Z,100487.56
2022-11-07T23:33:22.652Z,100489.97
2022-11-07T23:37:24.399Z,100488.22
2022-11-07T23:41:25.987Z,100480.38
2022-11-07T23:45:46.096Z,100486.25
2022-11-07T23:50:06.219Z,100483.59
2022-11-07T23:54:26.708Z,100480.16
2022-11-07T23:58:46.597Z,100479.34
